createdAt,value
2019-06-01T00:01:29.677Z,1.73
2019-06-01T00:04:00.043Z,1.50
2019-06-01T00:06:30.752Z,1.93
2019-06-01T00:09:02.022Z,1.80
2019-06-01T00:11:32.796Z,1.63
2019-06-01T00:14:03.760Z,1.60
2019-06-01T00:16:34.294Z,1.80
2019-06-01T00:19:04.724Z,2.03
2019-06-01T00:21:35.228Z,1.70
2019-06-01T00:24:05.762Z,1.73
2019-06-01T00:26:36.145Z,1.93
2019-06-01T00:29:06.408Z,1.77
2019-06-01T00:31:36.780Z,1.80
2019-06-01T00:34:07.161Z,1.60
2019-06-01T00:36:37.639Z,1.40
2019-06-01T00:39:08.685Z,1.50
2019-06-01T00:41:38.974Z,1.60
2019-06-01T00:44:09.247Z,1.60
2019-06-01T00:46:39.976Z,2.20
2019-06-01T00:49:10.283Z,2.00
2019-06-01T00:51:40.490Z,1.67
2019-06-01T00:54:10.789Z,1.80
2019-06-01T00:56:41.696Z,1.90
2019-06-01T00:59:12.245Z,1.90
2019-06-01T01:01:43.791Z,2.10
2019-06-01T01:04:14.396Z,1.80
2019-06-01T01:06:46.462Z,1.50
2019-06-01T01:09:16.978Z,1.87
2019-06-01T01:11:47.363Z,1.70
2019-06-01T01:14:17.789Z,1.63
2019-06-01T01:16:49.484Z,1.60
2019-06-01T01:19:20.134Z,2.10
2019-06-01T01:21:52.118Z,1.80
2019-06-01T01:24:22.552Z,2.10
2019-06-01T01:26:53.048Z,1.80
2019-06-01T01:29:24.075Z,1.63
2019-06-01T01:31:55.318Z,1.67
2019-06-01T01:34:25.927Z,2.13
2019-06-01T01:36:56.509Z,1.83
2019-06-01T01:39:26.816Z,1.80
2019-06-01T01:41:58.536Z,1.70
2019-06-01T01:44:29.266Z,2.20
2019-06-01T01:46:59.536Z,1.70
2019-06-01T01:49:31.034Z,1.70
2019-06-01T01:52:02.049Z,2.00
2019-06-01T01:54:32.780Z,1.60
2019-06-01T01:57:03.412Z,1.80
2019-06-01T01:59:33.848Z,2.00
2019-06-01T02:02:04.342Z,1.70
2019-06-01T02:04:34.636Z,1.67
2019-06-01T02:07:05.541Z,1.70
2019-06-01T02:09:35.989Z,1.77
2019-06-01T02:12:06.358Z,1.63
2019-06-01T02:14:36.712Z,1.60
2019-06-01T02:17:08.221Z,1.77
2019-06-01T02:19:38.566Z,1.80
2019-06-01T02:22:09.041Z,1.67
2019-06-01T02:24:39.325Z,1.70
2019-06-01T02:27:10.637Z,1.67
2019-06-01T02:29:41.040Z,2.10
2019-06-01T02:32:11.591Z,1.50
2019-06-01T02:34:41.807Z,1.73
2019-06-01T02:37:12.588Z,1.90
2019-06-01T02:39:42.982Z,2.10
2019-06-01T02:42:15.726Z,1.87
2019-06-01T02:44:45.999Z,2.10
2019-06-01T02:47:16.494Z,1.70
2019-06-01T02:49:46.801Z,1.80
2019-06-01T02:52:17.171Z,2.00
2019-06-01T02:54:47.616Z,1.83
2019-06-01T02:57:17.954Z,1.90
2019-06-01T02:59:48.226Z,1.97
2019-06-01T03:02:19.229Z,1.50
2019-06-01T03:04:49.538Z,1.63
2019-06-01T03:07:20.169Z,1.60
2019-06-01T03:09:50.852Z,1.90
2019-06-01T03:12:24.088Z,1.70
2019-06-01T03:14:58.373Z,2.30
2019-06-01T03:17:32.286Z,1.83
2019-06-01T03:20:06.309Z,2.03
2019-06-01T03:22:38.233Z,1.83
2019-06-01T03:25:08.828Z,1.90
2019-06-01T03:27:41.901Z,1.70
2019-06-01T03:30:15.645Z,1.73
2019-06-01T03:32:45.939Z,1.60
2019-06-01T03:35:16.134Z,1.90
2019-06-01T03:37:46.839Z,1.90
2019-06-01T03:40:23.794Z,1.93
2019-06-01T03:43:00.144Z,1.67
2019-06-01T03:45:30.607Z,1.87
2019-06-01T03:48:02.541Z,1.43
2019-06-01T03:50:32.802Z,1.60
2019-06-01T03:53:03.831Z,2.07
2019-06-01T03:55:36.099Z,1.80
2019-06-01T03:58:07.296Z,2.00
2019-06-01T04:00:37.750Z,1.70
2019-06-01T04:03:09.117Z,1.87
2019-06-01T04:05:39.784Z,2.53
2019-06-01T04:08:10.244Z,1.90
2019-06-01T04:10:40.801Z,2.20
2019-06-01T04:13:11.919Z,1.90
2019-06-01T04:15:42.472Z,2.60
2019-06-01T04:18:14.013Z,1.77
2019-06-01T04:20:44.600Z,1.90
2019-06-01T04:23:14.966Z,1.87
2019-06-01T04:25:45.276Z,2.50
2019-06-01T04:28:15.566Z,2.17
2019-06-01T04:30:46.027Z,2.33
2019-06-01T04:33:16.589Z,2.40
2019-06-01T04:35:46.797Z,2.90
2019-06-01T04:38:17.160Z,2.30
2019-06-01T04:40:47.618Z,2.10
2019-06-01T04:43:17.942Z,2.30
2019-06-01T04:45:48.281Z,2.27
2019-06-01T04:48:18.561Z,2.40
2019-06-01T04:50:49.015Z,2.30
2019-06-01T04:53:20.336Z,2.20
2019-06-01T04:55:51.126Z,2.50
2019-06-01T04:58:21.478Z,2.20
2019-06-01T05:00:51.981Z,3.10
2019-06-01T05:03:23.152Z,2.17
2019-06-01T05:05:54.289Z,2.30
2019-06-01T05:08:24.681Z,2.60
2019-06-01T05:10:54.988Z,2.10
2019-06-01T05:13:25.626Z,2.63
2019-06-01T05:15:56.231Z,2.20
2019-06-01T05:18:26.843Z,2.00
2019-06-01T05:20:57.403Z,2.00
2019-06-01T05:23:27.705Z,2.13
2019-06-01T05:25:58.340Z,2.13
2019-06-01T05:28:28.914Z,1.80
2019-06-01T05:30:59.175Z,2.40
2019-06-01T05:33:37.384Z,2.07
2019-06-01T05:36:03.138Z,2.10
2019-06-01T05:38:33.326Z,2.43
2019-06-01T05:41:22.604Z,2.03
2019-06-01T05:43:53.363Z,2.57
2019-06-01T05:46:23.695Z,2.30
2019-06-01T05:48:54.407Z,2.60
2019-06-01T05:51:24.683Z,2.20
2019-06-01T05:53:55.049Z,2.50
2019-06-01T05:56:25.958Z,2.17
2019-06-01T05:58:56.316Z,2.90
2019-06-01T06:01:28.414Z,2.50
2019-06-01T06:03:59.107Z,2.20
2019-06-01T06:06:29.404Z,2.60
2019-06-01T06:08:59.715Z,3.07
2019-06-01T06:11:30.183Z,1.90
2019-06-01T06:14:00.592Z,2.40
2019-06-01T06:16:30.756Z,2.77
2019-06-01T06:19:02.123Z,2.40
2019-06-01T06:21:33.482Z,2.10
2019-06-01T06:24:04.017Z,2.30
2019-06-01T06:26:53.705Z,2.10
2019-06-01T06:29:24.821Z,2.87
2019-06-01T06:31:55.158Z,2.60
2019-06-01T06:34:26.004Z,2.63
2019-06-01T06:36:56.810Z,2.23
2019-06-01T06:39:28.103Z,2.10
2019-06-01T06:41:58.276Z,2.17
2019-06-01T06:44:29.062Z,2.90
2019-06-01T06:46:59.290Z,2.20
2019-06-01T06:49:30.489Z,2.60
2019-06-01T06:52:00.909Z,2.40
2019-06-01T06:54:31.163Z,2.10
2019-06-01T06:57:01.650Z,2.47
2019-06-01T06:59:32.374Z,2.80
2019-06-01T07:02:03.030Z,2.43
2019-06-01T07:04:33.469Z,2.40
2019-06-01T07:07:03.712Z,11.27
2019-06-01T07:09:34.090Z,3.03
2019-06-01T07:12:04.747Z,2.60
2019-06-01T07:14:35.923Z,3.20
2019-06-01T07:17:06.491Z,3.43
2019-06-01T07:19:36.706Z,2.90
2019-06-01T07:22:07.009Z,3.07
2019-06-01T07:24:37.362Z,3.00
2019-06-01T07:27:07.826Z,3.07
2019-06-01T07:29:38.251Z,2.73
2019-06-01T07:32:08.523Z,3.43
2019-06-01T07:34:42.096Z,2.87
2019-06-01T07:37:11.130Z,3.10
2019-06-01T07:39:41.396Z,3.40
2019-06-01T07:42:11.828Z,3.00
2019-06-01T07:44:42.138Z,2.93
2019-06-01T07:47:12.609Z,2.53
2019-06-01T07:49:42.966Z,2.87
2019-06-01T07:52:13.774Z,3.57
2019-06-01T07:54:44.512Z,2.93
2019-06-01T07:57:14.873Z,2.83
2019-06-01T07:59:45.715Z,2.90
2019-06-01T08:02:25.318Z,3.20
2019-06-01T08:05:00.865Z,2.70
2019-06-01T08:07:31.792Z,3.23
2019-06-01T08:10:02.715Z,3.47
2019-06-01T08:12:40.897Z,3.17
2019-06-01T08:15:11.593Z,3.07
2019-06-01T08:17:42.352Z,3.20
2019-06-01T08:20:12.814Z,2.60
2019-06-01T08:22:43.357Z,3.17
2019-06-01T08:25:26.560Z,3.67
2019-06-01T08:27:57.222Z,2.73
2019-06-01T08:30:28.630Z,2.60
2019-06-01T08:32:59.424Z,2.80
2019-06-01T08:35:29.692Z,2.80
2019-06-01T08:38:00.499Z,2.57
2019-06-01T08:40:31.437Z,3.03
2019-06-01T08:43:02.116Z,3.20
2019-06-01T08:45:36.070Z,2.87
2019-06-01T08:48:04.832Z,3.40
2019-06-01T08:50:35.367Z,3.30
2019-06-01T08:53:06.043Z,2.80
2019-06-01T08:55:36.335Z,2.57
2019-06-01T08:58:06.634Z,2.70
2019-06-01T09:00:37.012Z,2.60
2019-06-01T09:03:07.493Z,3.03
2019-06-01T09:05:37.717Z,3.33
2019-06-01T09:08:08.285Z,2.90
2019-06-01T09:10:38.607Z,2.90
2019-06-01T09:13:09.099Z,2.67
2019-06-01T09:15:39.928Z,3.63
2019-06-01T09:18:10.126Z,3.53
2019-06-01T09:20:40.646Z,3.47
2019-06-01T09:23:10.932Z,3.00
2019-06-01T09:25:41.313Z,3.37
2019-06-01T09:28:11.495Z,2.50
2019-06-01T09:30:42.209Z,3.00
2019-06-01T09:33:12.629Z,2.90
2019-06-01T09:35:53.976Z,3.10
2019-06-01T09:38:15.487Z,3.53
2019-06-01T09:40:46.927Z,2.97
2019-06-01T09:43:20.324Z,3.00
2019-06-01T09:45:53.287Z,2.57
2019-06-01T09:48:22.583Z,2.90
2019-06-01T09:50:53.465Z,2.80
2019-06-01T09:53:23.732Z,3.20
2019-06-01T09:55:54.173Z,2.97
2019-06-01T09:58:24.688Z,3.10
2019-06-01T10:00:54.916Z,2.53
2019-06-01T10:03:28.124Z,2.10
2019-06-01T10:06:02.150Z,2.63
2019-06-01T10:08:32.544Z,2.20
2019-06-01T10:11:03.125Z,2.50
2019-06-01T10:13:34.740Z,2.63
2019-06-01T10:16:05.291Z,2.50
2019-06-01T10:18:37.053Z,2.80
2019-06-01T10:21:07.716Z,2.40
2019-06-01T10:23:38.558Z,2.40
2019-06-01T10:26:09.106Z,2.60
2019-06-01T10:28:39.797Z,2.07
2019-06-01T10:31:10.441Z,2.87
2019-06-01T10:33:40.619Z,2.07
2019-06-01T10:36:20.593Z,2.33
2019-06-01T10:38:54.603Z,2.47
2019-06-01T10:41:25.205Z,2.50
2019-06-01T10:43:55.827Z,2.60
2019-06-01T10:46:26.487Z,2.93
2019-06-01T10:48:56.979Z,3.10
2019-06-01T10:51:27.383Z,3.00
2019-06-01T10:53:58.104Z,2.77
2019-06-01T10:56:32.332Z,2.80
2019-06-01T10:59:02.601Z,2.70
2019-06-01T11:01:34.674Z,2.17
2019-06-01T11:04:05.548Z,2.77
2019-06-01T11:06:42.141Z,2.37
2019-06-01T11:09:10.088Z,2.67
2019-06-01T11:11:41.119Z,2.40
2019-06-01T11:14:11.542Z,2.23
2019-06-01T11:16:43.822Z,2.10
2019-06-01T11:19:14.754Z,2.30
2019-06-01T11:21:45.151Z,2.10
2019-06-01T11:24:15.687Z,2.60
2019-06-01T11:26:46.104Z,2.80
2019-06-01T11:29:16.827Z,2.20
2019-06-01T11:31:47.093Z,2.63
2019-06-01T11:34:17.478Z,2.63
2019-06-01T11:37:04.616Z,2.40
2019-06-01T11:39:19.946Z,2.40
2019-06-01T11:41:50.341Z,2.40
2019-06-01T11:44:22.598Z,2.70
2019-06-01T11:46:53.248Z,2.30
2019-06-01T11:49:24.172Z,2.73
2019-06-01T11:51:54.789Z,2.37
2019-06-01T11:54:25.238Z,2.70
2019-06-01T11:56:55.651Z,2.30
2019-06-01T11:59:26.540Z,2.57
2019-06-01T12:01:56.837Z,2.30
2019-06-01T12:04:27.113Z,2.50
2019-06-01T12:07:13.713Z,2.50
2019-06-01T12:09:29.762Z,2.20
2019-06-01T12:12:00.481Z,2.77
2019-06-01T12:14:30.756Z,2.20
2019-06-01T12:17:01.182Z,2.10
2019-06-01T12:19:31.425Z,3.00
2019-06-01T12:22:04.708Z,2.83
2019-06-01T12:24:35.036Z,2.60
2019-06-01T12:27:05.717Z,3.07
2019-06-01T12:29:37.404Z,2.60
2019-06-01T12:32:07.916Z,2.50
2019-06-01T12:34:38.255Z,2.47
2019-06-01T12:37:08.665Z,2.80
2019-06-01T12:39:40.333Z,2.10
2019-06-01T12:42:10.960Z,2.63
2019-06-01T12:44:41.673Z,2.53
2019-06-01T12:47:12.420Z,2.90
2019-06-01T12:49:44.048Z,2.40
2019-06-01T12:52:14.498Z,3.70
2019-06-01T12:54:44.762Z,3.13
2019-06-01T12:57:15.425Z,2.93
2019-06-01T12:59:47.518Z,2.90
2019-06-01T13:02:18.073Z,2.43
2019-06-01T13:04:49.077Z,2.77
2019-06-01T13:07:19.712Z,3.17
2019-06-01T13:09:51.062Z,2.70
2019-06-01T13:12:21.548Z,2.40
2019-06-01T13:15:11.680Z,2.27
2019-06-01T13:17:43.110Z,2.43
2019-06-01T13:20:14.136Z,1.93
2019-06-01T13:22:45.592Z,2.60
2019-06-01T13:25:16.569Z,1.93
2019-06-01T13:27:48.789Z,2.00
2019-06-01T13:30:20.362Z,2.00
2019-06-01T13:32:50.872Z,2.37
2019-06-01T13:35:22.171Z,1.93
2019-06-01T13:38:06.889Z,2.20
2019-06-01T13:40:24.840Z,2.03
2019-06-01T13:42:55.260Z,2.77
2019-06-01T13:45:25.662Z,2.50
2019-06-01T13:47:56.223Z,1.83
2019-06-01T13:50:26.611Z,2.00
2019-06-01T13:52:57.534Z,1.93
2019-06-01T13:55:27.961Z,2.30
2019-06-01T13:57:58.727Z,1.83
2019-06-01T14:00:30.618Z,2.20
2019-06-01T14:03:00.842Z,2.10
2019-06-01T14:05:31.162Z,1.70
2019-06-01T14:08:01.797Z,1.80
2019-06-01T14:10:32.185Z,1.70
2019-06-01T14:13:05.174Z,1.90
2019-06-01T14:15:34.600Z,1.70
2019-06-01T14:18:08.058Z,1.93
2019-06-01T14:20:38.353Z,2.00
2019-06-01T14:23:09.367Z,2.00
2019-06-01T14:25:40.243Z,2.00
2019-06-01T14:28:11.271Z,2.07
2019-06-01T14:30:41.639Z,1.80
2019-06-01T14:33:11.968Z,1.80
2019-06-01T14:35:42.431Z,2.00
2019-06-01T14:38:12.717Z,1.93
2019-06-01T14:40:43.196Z,2.17
2019-06-01T14:43:29.280Z,1.90
2019-06-01T14:45:59.758Z,2.10
2019-06-01T14:48:30.336Z,2.00
2019-06-01T14:51:03.012Z,1.73
2019-06-01T14:53:33.772Z,1.63
2019-06-01T14:56:04.142Z,1.60
2019-06-01T14:58:34.470Z,1.63
2019-06-01T15:01:04.819Z,2.20
2019-06-01T15:03:36.108Z,1.67
2019-06-01T15:06:06.618Z,1.90
2019-06-01T15:08:38.057Z,1.80
2019-06-01T15:11:08.393Z,1.63
2019-06-01T15:13:38.614Z,1.70
2019-06-01T15:16:09.678Z,1.67
2019-06-01T15:18:51.557Z,1.67
2019-06-01T15:21:21.648Z,1.63
2019-06-01T15:23:53.904Z,1.50
2019-06-01T15:26:24.615Z,1.90
2019-06-01T15:28:55.086Z,1.67
2019-06-01T15:31:25.470Z,2.03
2019-06-01T15:33:55.634Z,1.67
2019-06-01T15:36:25.848Z,1.90
2019-06-01T15:38:57.835Z,1.63
2019-06-01T15:41:28.281Z,1.50
2019-06-01T15:43:59.528Z,1.57
2019-06-01T15:46:29.710Z,1.80
2019-06-01T15:49:00.208Z,1.50
2019-06-01T15:51:31.110Z,1.60
2019-06-01T15:54:01.445Z,1.67
2019-06-01T15:56:31.734Z,1.80
2019-06-01T15:59:02.868Z,1.30
2019-06-01T16:01:33.246Z,1.63
2019-06-01T16:04:03.729Z,1.80
2019-06-01T16:06:34.148Z,1.83
2019-06-01T16:09:06.625Z,1.70
2019-06-01T16:11:37.133Z,1.57
2019-06-01T16:14:07.902Z,1.53
2019-06-01T16:16:38.311Z,1.53
2019-06-01T16:19:08.741Z,1.80
2019-06-01T16:21:39.068Z,1.50
2019-06-01T16:24:09.554Z,1.40
2019-06-01T16:26:39.961Z,1.77
2019-06-01T16:29:10.194Z,1.27
2019-06-01T16:31:40.981Z,1.63
2019-06-01T16:34:11.455Z,1.70
2019-06-01T16:36:42.228Z,1.60
2019-06-01T16:39:13.020Z,1.90
2019-06-01T16:41:43.724Z,1.93
2019-06-01T16:44:14.213Z,1.67
2019-06-01T16:46:44.632Z,2.13
2019-06-01T16:49:15.023Z,1.27
2019-06-01T16:51:58.680Z,1.60
2019-06-01T16:54:30.572Z,1.57
2019-06-01T16:57:01.230Z,1.57
2019-06-01T16:59:31.460Z,1.40
2019-06-01T17:02:03.187Z,1.33
2019-06-01T17:04:33.954Z,1.33
2019-06-01T17:07:05.581Z,1.40
2019-06-01T17:09:37.147Z,1.40
2019-06-01T17:12:07.999Z,1.63
2019-06-01T17:14:38.481Z,1.57
2019-06-01T17:17:08.914Z,1.60
2019-06-01T17:19:39.266Z,1.40
2019-06-01T17:22:09.887Z,1.50
2019-06-01T17:24:40.411Z,1.50
2019-06-01T17:27:10.928Z,1.50
2019-06-01T17:29:41.119Z,1.83
2019-06-01T17:32:23.967Z,1.50
2019-06-01T17:34:46.139Z,1.33
2019-06-01T17:37:16.353Z,1.60
2019-06-01T17:39:46.667Z,1.77
2019-06-01T17:42:17.148Z,1.40
2019-06-01T17:44:47.265Z,1.40
2019-06-01T17:47:18.168Z,1.20
2019-06-01T17:49:48.344Z,1.17
2019-06-01T17:52:18.745Z,1.20
2019-06-01T17:54:49.198Z,1.40
2019-06-01T17:57:20.496Z,1.40
2019-06-01T17:59:50.732Z,1.40
2019-06-01T18:02:21.048Z,1.40
2019-06-01T18:04:51.991Z,1.43
2019-06-01T18:07:23.574Z,1.40
2019-06-01T18:09:54.295Z,1.10
2019-06-01T18:12:24.904Z,1.20
2019-06-01T18:14:55.586Z,1.30
2019-06-01T18:17:25.892Z,1.20
2019-06-01T18:19:56.392Z,1.50
2019-06-01T18:22:27.393Z,1.47
2019-06-01T18:24:57.758Z,1.73
2019-06-01T18:27:28.144Z,1.20
2019-06-01T18:29:58.885Z,1.33
2019-06-01T18:32:29.431Z,1.40
2019-06-01T18:34:59.653Z,1.40
2019-06-01T18:37:29.986Z,1.50
2019-06-01T18:40:00.500Z,1.20
2019-06-01T18:42:31.654Z,1.40
2019-06-01T18:45:01.923Z,2.10
2019-06-01T18:47:32.808Z,1.60
2019-06-01T18:50:04.105Z,1.43
2019-06-01T18:52:35.287Z,1.40
2019-06-01T18:55:06.631Z,1.50
2019-06-01T18:57:39.467Z,1.40
2019-06-01T19:00:12.291Z,1.60
2019-06-01T19:02:42.537Z,1.50
2019-06-01T19:05:13.365Z,1.50
2019-06-01T19:07:43.937Z,1.53
2019-06-01T19:10:15.730Z,1.30
2019-06-01T19:12:46.281Z,1.43
2019-06-01T19:15:27.226Z,1.17
2019-06-01T19:17:49.101Z,1.30
2019-06-01T19:20:19.556Z,1.40
2019-06-01T19:22:49.973Z,1.43
2019-06-01T19:25:20.370Z,1.17
2019-06-01T19:27:51.217Z,1.47
2019-06-01T19:30:52.837Z,1.27
2019-06-01T19:33:24.380Z,1.30
2019-06-01T19:35:54.888Z,1.30
2019-06-01T19:38:26.167Z,1.10
2019-06-01T19:40:57.485Z,1.20
2019-06-01T19:43:28.116Z,1.10
2019-06-01T19:45:58.629Z,1.40
2019-06-01T19:48:28.829Z,1.00
2019-06-01T19:50:59.887Z,1.60
2019-06-01T19:53:31.521Z,1.30
2019-06-01T19:56:01.844Z,1.40
2019-06-01T19:58:32.228Z,1.13
2019-06-01T20:01:02.475Z,1.30
2019-06-01T20:03:33.087Z,1.40
2019-06-01T20:06:05.674Z,1.20
2019-06-01T20:08:36.195Z,1.40
2019-06-01T20:11:06.988Z,1.30
2019-06-01T20:13:37.594Z,1.10
2019-06-01T20:16:07.749Z,1.37
2019-06-01T20:18:38.034Z,1.03
2019-06-01T20:21:09.399Z,1.37
2019-06-01T20:23:40.483Z,1.13
2019-06-01T20:26:11.258Z,1.40
2019-06-01T20:28:41.817Z,1.20
2019-06-01T20:31:13.626Z,1.37
2019-06-01T20:33:44.256Z,1.10
2019-06-01T20:36:16.087Z,1.10
2019-06-01T20:38:46.586Z,1.30
2019-06-01T20:41:18.271Z,1.00
2019-06-01T20:43:49.145Z,1.30
2019-06-01T20:46:20.807Z,1.30
2019-06-01T20:48:51.894Z,1.30
2019-06-01T20:51:26.869Z,1.23
2019-06-01T20:53:54.232Z,1.40
2019-06-01T20:56:24.792Z,1.20
2019-06-01T20:58:55.300Z,1.13
2019-06-01T21:01:26.168Z,1.33
2019-06-01T21:03:56.589Z,1.20
2019-06-01T21:06:26.930Z,1.03
2019-06-01T21:08:57.376Z,1.13
2019-06-01T21:11:27.746Z,1.10
2019-06-01T21:13:58.021Z,1.20
2019-06-01T21:16:29.169Z,1.10
2019-06-01T21:18:59.482Z,1.27
2019-06-01T21:21:30.148Z,1.10
2019-06-01T21:24:00.534Z,1.10
2019-06-01T21:26:30.729Z,1.30
2019-06-01T21:29:01.989Z,1.27
2019-06-01T21:31:32.279Z,1.20
2019-06-01T21:34:03.256Z,1.20
2019-06-01T21:36:35.053Z,1.30
2019-06-01T21:39:10.135Z,1.20
2019-06-01T21:41:40.381Z,1.13
2019-06-01T21:44:10.815Z,1.10
2019-06-01T21:46:41.106Z,1.37
2019-06-01T21:49:15.576Z,1.27
2019-06-01T21:51:46.042Z,1.10
2019-06-01T21:54:18.003Z,1.30
2019-06-01T21:56:48.797Z,1.10
2019-06-01T21:59:20.504Z,1.30
2019-06-01T22:01:51.848Z,1.20
2019-06-01T22:04:23.023Z,1.57
2019-06-01T22:06:53.815Z,1.23
2019-06-01T22:09:25.297Z,1.23
2019-06-01T22:11:56.051Z,1.20
2019-06-01T22:14:27.658Z,1.30
2019-06-01T22:17:00.424Z,1.10
2019-06-01T22:19:30.709Z,1.20
2019-06-01T22:22:01.063Z,1.30
2019-06-01T22:24:31.418Z,1.53
2019-06-01T22:27:01.665Z,1.20
2019-06-01T22:29:32.069Z,1.60
2019-06-01T22:32:02.531Z,1.10
2019-06-01T22:34:32.828Z,1.53
2019-06-01T22:37:03.230Z,1.50
2019-06-01T22:39:33.532Z,1.83
2019-06-01T22:42:03.699Z,1.30
2019-06-01T22:44:34.158Z,1.37
2019-06-01T22:47:04.615Z,1.43
2019-06-01T22:49:35.020Z,1.70
2019-06-01T22:52:05.491Z,1.70
2019-06-01T22:54:35.912Z,1.90
2019-06-01T22:57:06.472Z,1.93
2019-06-01T22:59:48.463Z,1.70
2019-06-01T23:02:18.764Z,1.50
2019-06-01T23:04:49.176Z,1.50
2019-06-01T23:07:19.321Z,1.50
2019-06-01T23:09:49.933Z,1.57
2019-06-01T23:12:21.200Z,1.70
2019-06-01T23:14:51.501Z,1.70
2019-06-01T23:17:23.692Z,1.47
2019-06-01T23:19:54.079Z,2.00
2019-06-01T23:22:24.469Z,1.93
2019-06-01T23:24:54.805Z,1.83
2019-06-01T23:27:26.177Z,1.77
2019-06-01T23:29:56.850Z,2.00
2019-06-01T23:32:28.504Z,1.90
2019-06-01T23:34:59.398Z,1.90
2019-06-01T23:37:30.814Z,1.90
2019-06-01T23:40:01.927Z,2.10
2019-06-01T23:42:32.963Z,1.70
2019-06-01T23:45:03.345Z,1.43
2019-06-01T23:47:33.841Z,1.80
2019-06-01T23:50:04.757Z,1.60
2019-06-01T23:52:35.167Z,1.80
2019-06-01T23:55:06.671Z,1.50
2019-06-01T23:57:37.391Z,1.60
